Hauptseite
METAR-TAF:

METAR-TAF

Flughäfen :

Flughafen Genua

Genua, Italien

Breite: 44-25N, Länge: 008-51E, Höhe: 2 m

Beobachtung

Neuester Wetterbericht von vor 43 Minuten, um 19:50 UTC
Wind 5 kt aus Nord/Nordost, variierte zwischen Nord und Ost/Nordost
Temperatur 6°C
Luftfeuchtigkeit 42%
Luftdruck 1019 hPa
Sichtweite 10 km oder mehr
keine Wolken unter 1500 m und keine Kumulonimbus oder Gewitterwolken

METAR: LIMJ 151950Z 03005KT 360V060 CAVOK 06/M06 Q1019

Zeit: 21:33 (20:33 UTC)

Prognose

Neuester Wetterbericht von vor 3 Stunden und 33 Minuten, um 17:00 UTC
Gültige Prognose vom 15 um 18 UTC bis 16 um 18 UTC
Wind 10 kt aus Nord/Nordost
Sichtweite 10 km oder mehr
Aufgelockert bewölkt in der Höhe von 2500 ft
Aufgelockert bewölkt in der Höhe von 5000 ft
Übergehend zu
vom 16 um 03 UTC bis 16 um 06 UTC
Regen

TAF: LIMJ 151700Z 1518/1618 02010KT 9999 SCT025 SCT050 BECMG 1603/1606 RA

Wetterbeobachtungen und Prognosen von mehr als 4000 Flughäfen (METAR und TAF Bericht).

Die verfügbaren Stationen werden durch gelbe und rote Markierungen auf der Karte dargestellt.

Führen Sie die Maus auf sie, um den Namen der Station zu sehen.

Darauf klicken, um die Beobachtung von Wetterbeobachtungen und Prognosen zu sehen.

Um die Karte zu ändern : klicken Sie auf den grünen Tasten mit einem schwarzen Kreuz Zum Vergrößern, auf den grünen Button mit einem Gedankenstrich zu verkleinern, oder auf die grünen Pfeile für benachbarte Karten.


METAR-TAF: